Time;durP1;ratioP1;P1;durP2;ratioP2;P2;SDS_P1;SDS_P2;PMS_P1;PMS_P2;Temp;Humidity;BMP_temperature;BMP_pressure;BME280_temperature;BME280_humidity;BME280_pressure;Samples;Min_cycle;Max_cycle;Signal;HPM_P1;HPM_P2
2022/10/17 00:01:17;;;;;;;;;;;;;;;13.88;88.17;101542.56;5051436;28;19924;-60
2022/10/17 00:03:42;;;;;;;;;;;;;;;13.89;88.14;101540.72;5045907;28;20003;-60
2022/10/17 00:06:11;;;;;;;;;;;;;;;13.90;88.37;101537.03;5046782;28;20676;-60
2022/10/17 00:08:39;;;;;;;;;;;;;;;13.89;88.56;101538.88;5046471;28;19940;-60
2022/10/17 00:11:05;;;;;;;;;;;;;;;13.89;88.33;101530.88;5044289;28;19917;-59
2022/10/17 00:13:31;;;;;;;;;;;;;;;13.89;88.41;101541.53;5047743;28;20388;-60
2022/10/17 00:15:57;;;;;;;;;;;;;;;13.89;88.42;101533.53;5048925;28;19921;-60
2022/10/17 00:18:22;;;;;;;;;;;;;;;13.89;88.41;101528.19;5043481;28;19917;-60
2022/10/17 00:20:47;;;;;;;;;;;;;;;13.90;88.64;101532.53;5046802;28;19963;-60
2022/10/17 00:23:12;;;;;;;;;;;;;;;13.91;89.05;101526.19;5047116;28;20504;-60
2022/10/17 00:25:37;;;;;;;;;;;;;;;13.92;89.02;101525.16;5050829;28;20654;-61
2022/10/17 00:28:03;;;;;;;;;;;;;;;13.93;88.95;101526.81;5044674;28;19925;-60
2022/10/17 00:30:28;;;;;;;;;;;;;;;13.94;89.08;101530.34;5047000;28;19963;-60
2022/10/17 00:32:53;;;;;;;;;;;;;;;13.94;88.58;101520.47;5044920;28;19920;-58
2022/10/17 00:35:18;;;;;;;;;;;;;;;13.95;88.75;101513.31;5041712;28;20302;-59
2022/10/17 00:37:44;;;;;;;;;;;;;;;13.96;89.03;101506.94;5047533;28;19923;-60
2022/10/17 00:40:09;;;;;;;;;;;;;;;13.97;89.42;101510.44;5049157;28;20265;-60
2022/10/17 00:42:34;;;;;;;;;;;;;;;13.94;89.29;101504.47;5047635;28;19959;-59
2022/10/17 00:45:06;;;;;;;;;;;;;;;13.93;89.52;101510.81;5048706;28;20296;-59
2022/10/17 00:47:32;;;;;;;;;;;;;;;13.92;89.48;101503.81;5051310;28;19925;-60
2022/10/17 00:49:57;;;;;;;;;;;;;;;13.92;89.47;101509.16;5054029;28;19924;-60
2022/10/17 00:52:25;;;;;;;;;;;;;;;13.93;89.24;101516.16;5042622;28;19917;-60
2022/10/17 00:54:59;;;;;;;;;;;;;;;13.96;89.61;101517.63;5046305;28;20380;-60
2022/10/17 00:57:26;;;;;;;;;;;;;;;13.97;89.64;101519.28;5051746;28;19913;-60
2022/10/17 00:59:53;;;;;;;;;;;;;;;13.96;89.73;101514.97;5060866;28;19920;-60
2022/10/17 01:02:19;;;;;;;;;;;;;;;13.98;89.67;101514.78;5050381;28;19923;-60
2022/10/17 01:04:46;;;;;;;;;;;;;;;13.98;89.59;101509.44;5049506;28;19960;-60
2022/10/17 01:07:11;;;;;;;;;;;;;;;14.00;89.35;101507.44;5045998;28;19967;-60
2022/10/17 01:09:37;;;;;;;;;;;;;;;14.00;89.55;101500.25;5043022;28;20005;-60
2022/10/17 01:12:21;;;;;;;;;;;;;;;14.01;89.59;101498.41;5048061;28;19916;-60
2022/10/17 01:14:49;;;;;;;;;;;;;;;14.02;89.47;101490.22;5044183;28;20364;-60
2022/10/17 01:17:20;;;;;;;;;;;;;;;14.02;89.34;101487.53;5050368;28;19982;-60
2022/10/17 01:20:06;;;;;;;;;;;;;;;14.03;89.35;101491.03;5043260;28;19921;-59
2022/10/17 01:22:41;;;;;;;;;;;;;;;14.04;89.55;101498.03;5051360;28;20007;-60
2022/10/17 01:25:22;;;;;;;;;;;;;;;14.04;89.80;101509.56;5045998;28;20153;-60
2022/10/17 01:27:51;;;;;;;;;;;;;;;14.05;89.57;101505.88;5041244;28;19971;-60
2022/10/17 01:30:25;;;;;;;;;;;;;;;14.06;90.15;101504.88;5046059;28;19999;-60
2022/10/17 01:33:09;;;;;;;;;;;;;;;14.07;90.13;101503.88;5046363;28;19924;-60
2022/10/17 01:36:00;;;;;;;;;;;;;;;14.10;90.15;101495.50;5038650;28;19960;-60
2022/10/17 01:38:29;;;;;;;;;;;;;;;14.14;90.20;101495.97;5026488;28;20657;-60
2022/10/17 01:40:54;;;;;;;;;;;;;;;14.14;91.04;101493.28;5043735;28;19930;-60
2022/10/17 01:43:22;;;;;;;;;;;;;;;14.14;90.58;101483.44;5051236;28;19917;-60
2022/10/17 01:46:11;;;;;;;;;;;;;;;14.17;90.30;101491.13;5044673;28;20448;-60
2022/10/17 01:48:40;;;;;;;;;;;;;;;14.20;90.90;101484.59;5039132;28;20392;-59
2022/10/17 01:51:08;;;;;;;;;;;;;;;14.22;90.99;101477.22;5050328;28;19916;-60
2022/10/17 01:53:36;;;;;;;;;;;;;;;14.23;90.83;101479.72;5055108;28;20011;-60
2022/10/17 01:56:04;;;;;;;;;;;;;;;14.25;91.00;101491.06;5047149;28;19970;-60
2022/10/17 01:58:35;;;;;;;;;;;;;;;14.25;91.03;101493.72;5052891;28;19912;-60
2022/10/17 02:01:03;;;;;;;;;;;;;;;14.27;90.94;101497.06;5048940;28;20562;-59
2022/10/17 02:03:30;;;;;;;;;;;;;;;14.29;91.17;101493.38;5051895;28;19916;-60
2022/10/17 02:05:55;;;;;;;;;;;;;;;14.28;91.42;101497.88;5048887;28;19967;-59
2022/10/17 02:08:27;;;;;;;;;;;;;;;14.27;91.25;101488.22;5041566;28;19925;-59
2022/10/17 02:11:00;;;;;;;;;;;;;;;14.29;91.37;101493.38;5040979;28;19917;-60
2022/10/17 02:13:36;;;;;;;;;;;;;;;14.31;92.04;101483.34;5044684;28;20296;-60
2022/10/17 02:16:01;;;;;;;;;;;;;;;14.32;91.44;101482.31;5041998;28;19928;-60
2022/10/17 02:18:45;;;;;;;;;;;;;;;14.33;91.63;101476.78;5047487;28;19921;-60
2022/10/17 02:21:18;;;;;;;;;;;;;;;14.34;91.57;101481.13;5049334;28;19917;-60
2022/10/17 02:23:49;;;;;;;;;;;;;;;14.34;91.42;101478.44;5044315;28;19931;-60
2022/10/17 02:26:17;;;;;;;;;;;;;;;14.35;91.48;101474.78;5041784;28;20434;-60
2022/10/17 02:29:00;;;;;;;;;;;;;;;14.36;91.13;101470.25;5046422;28;20740;-61
2022/10/17 02:31:29;;;;;;;;;;;;;;;14.37;90.92;101478.09;5045090;28;19923;-59
2022/10/17 02:34:00;;;;;;;;;;;;;;;14.37;91.06;101475.41;5046103;28;19917;-60
2022/10/17 02:36:29;;;;;;;;;;;;;;;14.38;91.23;101473.56;5046515;28;19917;-59
2022/10/17 02:38:55;;;;;;;;;;;;;;;14.38;90.95;101474.41;5045861;28;19916;-59
2022/10/17 02:41:22;;;;;;;;;;;;;;;14.38;90.95;101477.09;5042523;28;19920;-60
2022/10/17 02:43:48;;;;;;;;;;;;;;;14.39;91.12;101473.41;5041960;28;19917;-61
2022/10/17 02:46:19;;;;;;;;;;;;;;;14.40;91.00;101471.56;5046003;28;19979;-60
2022/10/17 02:48:50;;;;;;;;;;;;;;;14.41;91.20;101473.22;5044347;28;20335;-60
2022/10/17 02:51:21;;;;;;;;;;;;;;;14.43;91.13;101480.06;5042785;28;19925;-60
2022/10/17 02:53:57;;;;;;;;;;;;;;;14.42;91.39;101474.88;5041007;28;19956;-60
2022/10/17 02:56:24;;;;;;;;;;;;;;;14.41;90.92;101466.03;5042568;28;19916;-61
2022/10/17 02:58:51;;;;;;;;;;;;;;;14.43;91.14;101476.56;5046474;28;19924;-60
2022/10/17 03:01:18;;;;;;;;;;;;;;;14.43;91.57;101477.41;5043594;28;19917;-61
2022/10/17 03:03:43;;;;;;;;;;;;;;;14.43;92.01;101480.06;5044305;28;19982;-60
2022/10/17 03:06:08;;;;;;;;;;;;;;;14.44;91.91;101479.06;5044374;28;19925;-60
2022/10/17 03:08:33;;;;;;;;;;;;;;;14.45;91.54;101480.72;5047568;28;20358;-60
2022/10/17 03:10:58;;;;;;;;;;;;;;;14.47;91.84;101480.56;5048624;28;19921;-60
2022/10/17 03:13:23;;;;;;;;;;;;;;;14.47;92.35;101483.25;5050312;28;19924;-60
2022/10/17 03:15:49;;;;;;;;;;;;;;;14.48;92.66;101480.38;5042717;28;19929;-61
2022/10/17 03:18:14;;;;;;;;;;;;;;;14.49;92.67;101468.69;5045891;28;20002;-61
2022/10/17 03:20:39;;;;;;;;;;;;;;;14.48;92.91;101468.88;5045486;28;19971;-60
2022/10/17 03:23:04;;;;;;;;;;;;;;;14.48;92.62;101466.19;5053702;28;19916;-61
2022/10/17 03:25:29;;;;;;;;;;;;;;;14.48;92.50;101466.19;5050559;28;22109;-61
2022/10/17 03:27:57;;;;;;;;;;;;;;;14.49;92.48;101466.00;5050294;28;19913;-61
2022/10/17 03:30:22;;;;;;;;;;;;;;;14.52;92.55;101465.66;5041764;28;19925;-60
2022/10/17 03:32:47;;;;;;;;;;;;;;;14.55;92.67;101457.25;5047395;28;19932;-60
2022/10/17 03:35:12;;;;;;;;;;;;;;;14.57;92.59;101460.59;5045990;28;19925;-60
2022/10/17 03:37:37;;;;;;;;;;;;;;;14.61;92.42;101463.72;5043094;28;19919;-59
2022/10/17 03:40:03;;;;;;;;;;;;;;;14.64;92.34;101468.69;5049205;28;19925;-59
2022/10/17 03:42:28;;;;;;;;;;;;;;;14.64;92.65;101460.69;5046637;28;19916;-58
2022/10/17 03:44:53;;;;;;;;;;;;;;;14.70;92.61;101461.78;5048460;28;19925;-58
2022/10/17 03:47:18;;;;;;;;;;;;;;;14.73;93.31;101469.44;5048589;28;19916;-58
2022/10/17 03:49:43;;;;;;;;;;;;;;;14.75;93.25;101462.09;5048234;28;19920;-59
2022/10/17 03:52:12;;;;;;;;;;;;;;;14.79;93.24;101456.19;5048276;28;19921;-59
2022/10/17 03:54:37;;;;;;;;;;;;;;;14.84;93.57;101455.66;5050803;28;19924;-58
2022/10/17 03:57:03;;;;;;;;;;;;;;;14.88;93.06;101455.09;5050784;28;19969;-58
2022/10/17 03:59:28;;;;;;;;;;;;;;;14.92;93.69;101458.22;5049272;28;20565;-59
2022/10/17 04:01:53;;;;;;;;;;;;;;;14.97;93.89;101469.19;5049732;28;19919;-58
2022/10/17 04:04:18;;;;;;;;;;;;;;;14.99;94.03;101472.50;5047018;28;19917;-58
2022/10/17 04:06:43;;;;;;;;;;;;;;;15.03;93.85;101481.81;5047666;28;19920;-58
2022/10/17 04:09:09;;;;;;;;;;;;;;;15.05;94.04;101474.47;5047192;28;19927;-59
2022/10/17 04:11:34;;;;;;;;;;;;;;;15.08;93.76;101482.13;5059013;28;19913;-59
2022/10/17 04:13:59;;;;;;;;;;;;;;;15.09;94.12;101481.13;5047681;28;20481;-59
2022/10/17 04:16:25;;;;;;;;;;;;;;;15.13;94.22;101487.75;5049927;28;19924;-59
2022/10/17 04:18:54;;;;;;;;;;;;;;;15.14;94.34;101477.88;5052440;28;19913;-58
2022/10/17 04:21:19;;;;;;;;;;;;;;;15.16;94.53;101487.38;5049828;28;19913;-58
2022/10/17 04:23:44;;;;;;;;;;;;;;;15.20;94.62;101482.47;5052437;28;20429;-58
2022/10/17 04:26:10;;;;;;;;;;;;;;;15.22;94.54;101488.47;5049568;28;19928;-58
2022/10/17 04:28:36;;;;;;;;;;;;;;;15.24;95.13;101491.78;5047340;28;20346;-58
2022/10/17 04:31:04;;;;;;;;;;;;;;;15.28;95.32;101501.09;5059029;28;19931;-58
2022/10/17 04:33:29;;;;;;;;;;;;;;;15.31;95.52;101507.94;5051211;28;19917;-59
2022/10/17 04:35:58;;;;;;;;;;;;;;;15.34;96.13;101504.91;5047982;28;19917;-59
2022/10/17 04:38:23;;;;;;;;;;;;;;;15.36;95.75;101503.72;5050757;28;20521;-58
2022/10/17 04:40:49;;;;;;;;;;;;;;;15.39;96.30;101508.69;5048546;28;19921;-58
2022/10/17 04:43:14;;;;;;;;;;;;;;;15.43;96.37;101518.00;5042870;28;20007;-59
2022/10/17 04:45:39;;;;;;;;;;;;;;;15.46;96.86;101524.84;5045153;28;19917;-59
2022/10/17 04:48:04;;;;;;;;;;;;;;;15.51;97.21;101535.81;5042267;28;20015;-57
2022/10/17 04:50:29;;;;;;;;;;;;;;;15.56;97.54;101540.59;5042183;28;19917;-58
2022/10/17 04:52:54;;;;;;;;;;;;;;;15.60;97.61;101539.25;5047102;28;19916;-58
2022/10/17 04:55:20;;;;;;;;;;;;;;;15.60;97.29;101537.41;5047094;28;20023;-59
2022/10/17 04:57:45;;;;;;;;;;;;;;;15.61;97.38;101538.22;5044709;28;19921;-58
2022/10/17 05:00:10;;;;;;;;;;;;;;;15.62;97.50;101546.09;5041764;28;19969;-59
2022/10/17 05:02:35;;;;;;;;;;;;;;;15.63;97.63;101544.25;5041339;28;20269;-58
2022/10/17 05:05:01;;;;;;;;;;;;;;;15.65;97.63;101551.06;5043133;28;20059;-58
2022/10/17 05:07:26;;;;;;;;;;;;;;;15.67;97.95;101538.31;5046677;28;19921;-58
2022/10/17 05:09:51;;;;;;;;;;;;;;;15.69;97.28;101536.28;5043542;28;19920;-61
2022/10/17 05:12:16;;;;;;;;;;;;;;;15.69;97.32;101536.28;5042462;28;19973;-60
2022/10/17 05:14:41;;;;;;;;;;;;;;;15.62;97.28;101529.19;5043792;28;19925;-60
2022/10/17 05:17:07;;;;;;;;;;;;;;;15.68;97.44;101529.28;5044679;28;19917;-60
2022/10/17 05:19:32;;;;;;;;;;;;;;;15.68;96.92;101531.97;5044941;28;20296;-61
2022/10/17 05:21:57;;;;;;;;;;;;;;;15.69;97.19;101538.97;5047056;28;19924;-61
2022/10/17 05:24:22;;;;;;;;;;;;;;;15.70;97.29;101537.94;5044646;28;19962;-60
2022/10/17 05:26:50;;;;;;;;;;;;;;;15.70;97.07;101540.63;5043004;28;19928;-60
2022/10/17 05:29:16;;;;;;;;;;;;;;;15.69;96.90;101547.00;5042867;28;21600;-61
2022/10/17 05:31:41;;;;;;;;;;;;;;;15.70;97.03;101548.66;5045469;28;19924;-61
2022/10/17 05:34:06;;;;;;;;;;;;;;;15.71;97.47;101547.66;5045873;28;20053;-60
2022/10/17 05:36:31;;;;;;;;;;;;;;;15.73;97.49;101564.34;5043199;28;20389;-60
2022/10/17 05:38:56;;;;;;;;;;;;;;;15.74;97.87;101549.13;5044956;28;20017;-61
2022/10/17 05:41:22;;;;;;;;;;;;;;;15.75;97.60;101551.59;5041938;28;20335;-61
2022/10/17 05:43:47;;;;;;;;;;;;;;;15.77;97.40;101559.44;5046258;28;19974;-60
2022/10/17 05:46:12;;;;;;;;;;;;;;;15.78;97.72;101555.75;5043474;28;20600;-60
2022/10/17 05:48:37;;;;;;;;;;;;;;;15.80;97.47;101565.25;5047503;28;20522;-60
2022/10/17 05:51:04;;;;;;;;;;;;;;;15.82;97.48;101561.56;5044550;28;19931;-61
2022/10/17 05:53:31;;;;;;;;;;;;;;;15.82;97.45;101561.56;5046034;28;20396;-61
2022/10/17 05:56:00;;;;;;;;;;;;;;;15.82;97.20;101567.75;5043131;28;19921;-61
2022/10/17 05:58:26;;;;;;;;;;;;;;;15.82;97.24;101570.44;5045558;28;19931;-61
2022/10/17 06:00:51;;;;;;;;;;;;;;;15.83;97.40;101568.59;5044652;28;19917;-60
2022/10/17 06:03:16;;;;;;;;;;;;;;;15.84;97.32;101571.06;5045121;28;20414;-60
2022/10/17 06:05:41;;;;;;;;;;;;;;;15.84;97.26;101565.72;5046272;28;20020;-60
2022/10/17 06:08:07;;;;;;;;;;;;;;;15.86;96.87;101562.84;5053415;28;19916;-60
2022/10/17 06:10:32;;;;;;;;;;;;;;;15.87;97.30;101572.53;5054338;28;19944;-60
2022/10/17 06:12:57;;;;;;;;;;;;;;;15.89;97.13;101565.97;5055487;28;20367;-60
2022/10/17 06:15:22;;;;;;;;;;;;;;;15.93;97.58;101569.13;5051181;28;20016;-60
2022/10/17 06:17:48;;;;;;;;;;;;;;;15.96;97.31;101558.88;5054305;28;19969;-60
2022/10/17 06:20:13;;;;;;;;;;;;;;;15.99;97.21;101571.06;5046478;28;20385;-61
2022/10/17 06:22:38;;;;;;;;;;;;;;;16.00;97.41;101570.03;5046824;28;19924;-61
2022/10/17 06:25:03;;;;;;;;;;;;;;;16.03;97.61;101572.34;5041345;28;20033;-61
2022/10/17 06:27:28;;;;;;;;;;;;;;;16.06;97.49;101571.97;5042312;28;19928;-60
2022/10/17 06:29:54;;;;;;;;;;;;;;;16.09;97.37;101575.09;5040821;28;19929;-61
2022/10/17 06:32:19;;;;;;;;;;;;;;;16.10;97.14;101576.75;5043181;28;19968;-61
2022/10/17 06:34:45;;;;;;;;;;;;;;;16.10;96.88;101573.25;5042043;28;19921;-60
2022/10/17 06:37:10;;;;;;;;;;;;;;;16.10;96.58;101576.75;5046575;28;19917;-61
2022/10/17 06:39:35;;;;;;;;;;;;;;;16.14;97.23;101579.03;5052586;28;19932;-58
2022/10/17 06:42:00;;;;;;;;;;;;;;;16.17;96.90;101581.34;5048335;28;20451;-58
2022/10/17 06:44:29;;;;;;;;;;;;;;;16.18;96.93;101583.84;5042234;28;20384;-58
2022/10/17 06:46:54;;;;;;;;;;;;;;;16.18;96.59;101581.16;5050307;28;20358;-60
2022/10/17 06:49:19;;;;;;;;;;;;;;;16.20;96.52;101587.19;5047731;28;20682;-61
2022/10/17 06:51:45;;;;;;;;;;;;;;;16.23;96.77;101602.06;5054333;28;20374;-60
2022/10/17 06:54:10;;;;;;;;;;;;;;;16.25;96.85;101608.88;5057491;28;19912;-59
2022/10/17 06:56:35;;;;;;;;;;;;;;;16.28;96.66;101605.00;5048957;28;20017;-60
2022/10/17 06:59:00;;;;;;;;;;;;;;;16.29;96.50;101610.16;5046670;28;19946;-58
2022/10/17 07:01:27;;;;;;;;;;;;;;;16.32;96.44;101608.94;5056391;28;19916;-60
2022/10/17 07:03:52;;;;;;;;;;;;;;;16.34;96.18;101598.88;5054827;28;19921;-60
2022/10/17 07:06:18;;;;;;;;;;;;;;;16.34;96.23;101597.00;5048749;28;19916;-59
2022/10/17 07:08:43;;;;;;;;;;;;;;;16.36;96.35;101597.66;5046377;28;19927;-61
2022/10/17 07:11:13;;;;;;;;;;;;;;;16.38;95.90;101603.66;5049926;28;20415;-60
2022/10/17 07:13:38;;;;;;;;;;;;;;;16.42;96.23;101610.28;5051069;28;19919;-60
2022/10/17 07:16:03;;;;;;;;;;;;;;;16.45;96.14;101609.06;5047423;28;19925;-60
2022/10/17 07:18:29;;;;;;;;;;;;;;;16.49;96.03;101614.91;5047696;28;19924;-59
2022/10/17 07:20:54;;;;;;;;;;;;;;;16.53;96.14;101608.16;5044262;28;19932;-59
2022/10/17 07:23:19;;;;;;;;;;;;;;;16.54;95.46;101605.28;5042841;28;20392;-59
2022/10/17 07:25:45;;;;;;;;;;;;;;;16.56;95.77;101602.41;5048981;28;20073;-59
2022/10/17 07:28:10;;;;;;;;;;;;;;;16.57;95.48;101620.16;5045934;28;19921;-58
2022/10/17 07:30:35;;;;;;;;;;;;;;;16.55;95.44;101631.06;5047191;28;19917;-58
2022/10/17 07:33:00;;;;;;;;;;;;;;;16.53;95.29;101635.78;5049061;28;20019;-59
2022/10/17 07:35:25;;;;;;;;;;;;;;;16.55;95.21;101643.66;5050250;28;19928;-58
2022/10/17 07:37:50;;;;;;;;;;;;;;;16.54;95.11;101658.91;5053236;28;19945;-58
2022/10/17 07:40:16;;;;;;;;;;;;;;;16.56;95.35;101685.53;5054100;28;19917;-59
2022/10/17 07:42:41;;;;;;;;;;;;;;;16.58;95.13;101702.25;5052840;28;20376;-58
2022/10/17 07:45:06;;;;;;;;;;;;;;;16.58;95.10;101729.09;5053245;28;19963;-58
2022/10/17 07:47:34;;;;;;;;;;;;;;;16.58;95.08;101751.38;5048645;28;19933;-58
2022/10/17 07:49:59;;;;;;;;;;;;;;;16.58;94.83;101754.03;5046116;28;19952;-58
2022/10/17 07:52:24;;;;;;;;;;;;;;;16.54;95.22;101789.47;5056980;28;20510;-58
2022/10/17 07:54:50;;;;;;;;;;;;;;;16.48;95.55;101803.59;5054328;28;19924;-59
2022/10/17 07:57:15;;;;;;;;;;;;;;;16.34;96.39;101794.56;5049478;28;19917;-59
2022/10/17 07:59:40;;;;;;;;;;;;;;;16.15;97.57;101797.78;5047743;28;19966;-60
2022/10/17 08:02:07;;;;;;;;;;;;;;;16.00;98.83;101779.03;5047959;28;19971;-61
2022/10/17 08:04:32;;;;;;;;;;;;;;;15.88;99.73;101761.72;5045877;28;20124;-61
2022/10/17 08:06:58;;;;;;;;;;;;;;;15.81;100.00;101750.91;5046364;28;19983;-61
2022/10/17 08:09:24;;;;;;;;;;;;;;;15.75;100.00;101759.66;5049225;28;19916;-60
2022/10/17 08:11:49;;;;;;;;;;;;;;;15.71;100.00;101758.38;5053049;28;19924;-60
2022/10/17 08:14:15;;;;;;;;;;;;;;;15.69;100.00;101755.88;5041577;28;19964;-60
2022/10/17 08:16:40;;;;;;;;;;;;;;;15.67;100.00;101747.19;5045066;28;19920;-60
2022/10/17 08:19:07;;;;;;;;;;;;;;;15.68;100.00;101764.09;5049962;28;19916;-60
2022/10/17 08:21:33;;;;;;;;;;;;;;;15.68;100.00;101762.25;5052378;28;19932;-60
2022/10/17 08:23:58;;;;;;;;;;;;;;;15.67;100.00;101779.34;5047630;28;19918;-60
2022/10/17 08:26:23;;;;;;;;;;;;;;;15.69;100.00;101825.50;5046386;28;19912;-59
2022/10/17 08:28:48;;;;;;;;;;;;;;;15.72;100.00;101859.13;5054815;28;19932;-60
2022/10/17 08:31:16;;;;;;;;;;;;;;;15.74;100.00;101865.97;5048908;28;20066;-60
2022/10/17 08:33:42;;;;;;;;;;;;;;;15.73;100.00;101853.59;5045556;28;19966;-61
2022/10/17 08:36:07;;;;;;;;;;;;;;;15.73;100.00;101834.84;5033130;28;20003;-61
2022/10/17 08:38:34;;;;;;;;;;;;;;;15.72;100.00;101835.03;5060945;28;19923;-60
2022/10/17 08:41:00;;;;;;;;;;;;;;;15.69;100.00;101836.22;5051606;28;19940;-61
2022/10/17 08:43:25;;;;;;;;;;;;;;;15.70;100.00;101837.06;5049512;28;20011;-60
2022/10/17 08:45:53;;;;;;;;;;;;;;;15.69;100.00;101816.63;5051138;28;20046;-60
2022/10/17 08:48:20;;;;;;;;;;;;;;;15.68;100.00;101810.44;5055744;28;20394;-60
2022/10/17 08:50:50;;;;;;;;;;;;;;;15.69;100.00;101819.31;5048357;28;19952;-60
2022/10/17 08:53:15;;;;;;;;;;;;;;;15.71;100.00;101828.00;5052693;28;19912;-60
2022/10/17 08:55:45;;;;;;;;;;;;;;;15.73;100.00;101816.09;5049783;28;19923;-60
2022/10/17 08:58:12;;;;;;;;;;;;;;;15.74;100.00;101812.41;5045864;28;19917;-61
2022/10/17 09:00:39;;;;;;;;;;;;;;;15.76;100.00;101813.06;5048054;28;19917;-61
2022/10/17 09:03:16;;;;;;;;;;;;;;;15.77;100.00;101814.72;5056919;28;20009;-60
2022/10/17 09:05:41;;;;;;;;;;;;;;;15.73;100.00;101816.09;5048569;28;19923;-60
2022/10/17 09:08:17;;;;;;;;;;;;;;;15.79;100.00;101831.44;5052081;28;19916;-61
2022/10/17 09:10:52;;;;;;;;;;;;;;;15.79;100.00;101807.34;5042932;28;19924;-60
2022/10/17 09:13:36;;;;;;;;;;;;;;;15.81;100.00;101839.28;5043729;28;19925;-61
2022/10/17 09:16:30;;;;;;;;;;;;;;;15.81;100.00;101855.38;5046990;28;19947;-61
2022/10/17 09:19:00;;;;;;;;;;;;;;;15.79;100.00;101868.94;5028931;28;19921;-62
2022/10/17 09:21:32;;;;;;;;;;;;;;;15.78;100.00;101894.06;5046583;28;19916;-61
2022/10/17 09:24:00;;;;;;;;;;;;;;;15.77;100.00;101887.03;5045376;28;20372;-62
2022/10/17 09:26:26;;;;;;;;;;;;;;;15.74;100.00;101874.00;5045713;28;19916;-62
2022/10/17 09:28:52;;;;;;;;;;;;;;;15.70;100.00;101862.00;5045130;28;20007;-62
2022/10/17 09:31:27;;;;;;;;;;;;;;;15.68;100.00;101855.16;5045098;28;19917;-62
2022/10/17 09:33:58;;;;;;;;;;;;;;;15.67;100.00;101838.25;5045835;28;19956;-61
2022/10/17 09:36:32;;;;;;;;;;;;;;;15.69;100.00;101789.88;5042129;28;19936;-61
2022/10/17 09:38:59;;;;;;;;;;;;;;;15.70;100.00;101784.31;5049176;28;19924;-61
2022/10/17 09:41:30;;;;;;;;;;;;;;;15.76;100.00;101805.03;5045009;28;19998;-61
2022/10/17 09:43:56;;;;;;;;;;;;;;;15.78;100.00;101810.19;5044390;28;19924;-61
2022/10/17 09:46:31;;;;;;;;;;;;;;;15.79;100.00;101818.03;5043992;28;19931;-60
2022/10/17 09:49:02;;;;;;;;;;;;;;;15.82;100.00;101821.38;5049465;28;19921;-60
2022/10/17 09:51:27;;;;;;;;;;;;;;;15.83;100.00;101845.28;5042361;28;19921;-60
2022/10/17 09:53:59;;;;;;;;;;;;;;;15.84;100.00;101864.88;5044798;28;19927;-60
2022/10/17 09:56:24;;;;;;;;;;;;;;;15.84;100.00;101873.75;5047006;28;19924;-60
2022/10/17 09:58:54;;;;;;;;;;;;;;;15.84;100.00;101838.09;5049132;28;20628;-61
2022/10/17 10:01:21;;;;;;;;;;;;;;;15.85;100.00;101842.44;5043533;28;19924;-61
2022/10/17 10:03:47;;;;;;;;;;;;;;;15.86;100.00;101830.72;5043610;28;19966;-60
2022/10/17 10:06:17;;;;;;;;;;;;;;;15.89;100.00;101816.94;5046865;28;19925;-60
2022/10/17 10:08:50;;;;;;;;;;;;;;;15.92;100.00;101825.47;5044504;28;19929;-60
2022/10/17 10:11:16;;;;;;;;;;;;;;;15.94;100.00;101841.38;5043057;28;20265;-60
2022/10/17 10:13:42;;;;;;;;;;;;;;;15.98;100.00;101858.75;5043660;28;19917;-60
2022/10/17 10:16:13;;;;;;;;;;;;;;;15.97;100.00;101859.75;5044230;28;20004;-60
2022/10/17 10:18:38;;;;;;;;;;;;;;;15.99;100.00;101863.09;5043699;28;20380;-60
2022/10/17 10:21:14;;;;;;;;;;;;;;;16.02;100.00;101863.56;5044625;28;19935;-60
2022/10/17 10:23:40;;;;;;;;;;;;;;;16.07;100.00;101865.69;5047797;28;19917;-60
2022/10/17 10:26:11;;;;;;;;;;;;;;;16.10;100.00;101866.16;5051071;28;19917;-60
2022/10/17 10:28:37;;;;;;;;;;;;;;;16.14;100.00;101879.19;5044626;28;19924;-60
2022/10/17 10:31:04;;;;;;;;;;;;;;;16.15;100.00;101880.84;5042904;28;19928;-60
2022/10/17 10:33:30;;;;;;;;;;;;;;;16.18;100.00;101901.94;5045981;28;19952;-60
2022/10/17 10:36:02;;;;;;;;;;;;;;;16.17;100.00;101898.41;5045164;28;20422;-60
2022/10/17 10:38:29;;;;;;;;;;;;;;;16.18;100.00;101902.75;5049226;28;19924;-60
2022/10/17 10:40:55;;;;;;;;;;;;;;;16.20;100.00;101911.47;5049405;28;19916;-60
2022/10/17 10:43:21;;;;;;;;;;;;;;;16.21;100.00;101918.50;5047807;28;19936;-60
2022/10/17 10:45:46;;;;;;;;;;;;;;;16.21;100.00;101921.19;5042875;28;20108;-60
2022/10/17 10:48:24;;;;;;;;;;;;;;;16.20;100.00;101932.91;5043745;28;19946;-60
2022/10/17 10:51:01;;;;;;;;;;;;;;;16.19;100.00;101933.94;5044177;28;19953;-60
2022/10/17 10:53:40;;;;;;;;;;;;;;;16.16;100.00;101954.88;5048001;28;19955;-60
2022/10/17 10:56:15;;;;;;;;;;;;;;;16.13;100.00;101956.06;5045943;28;20007;-60
2022/10/17 10:58:50;;;;;;;;;;;;;;;16.12;100.00;101959.75;5043380;28;19916;-59
2022/10/17 11:01:24;;;;;;;;;;;;;;;16.12;100.00;101959.75;5043628;28;19924;-59
2022/10/17 11:04:04;;;;;;;;;;;;;;;16.11;100.00;101952.75;5047362;28;19948;-60
2022/10/17 11:06:34;;;;;;;;;;;;;;;16.10;100.00;101962.63;5045456;28;20494;-59
2022/10/17 11:09:12;;;;;;;;;;;;;;;16.11;100.00;101968.81;5043317;28;19928;-59
2022/10/17 11:11:41;;;;;;;;;;;;;;;16.11;100.00;101969.66;5049128;28;19963;-59
2022/10/17 11:14:25;;;;;;;;;;;;;;;16.10;100.00;101968.00;5042829;28;20437;-60
2022/10/17 11:16:50;;;;;;;;;;;;;;;16.11;100.00;101963.47;5042428;28;19917;-60
2022/10/17 11:19:36;;;;;;;;;;;;;;;16.13;100.00;101969.47;5046238;28;19969;-59
2022/10/17 11:22:15;;;;;;;;;;;;;;;16.10;100.00;101967.16;5044436;28;19931;-60
2022/10/17 11:24:55;;;;;;;;;;;;;;;16.13;100.00;101982.88;5041142;28;19917;-59
2022/10/17 11:27:21;;;;;;;;;;;;;;;16.14;100.00;101989.06;5043614;28;20542;-59
2022/10/17 11:29:46;;;;;;;;;;;;;;;16.13;100.00;101995.44;5040913;28;19917;-59
2022/10/17 11:32:34;;;;;;;;;;;;;;;16.11;100.00;101995.63;5041484;28;19947;-59
2022/10/17 11:35:06;;;;;;;;;;;;;;;16.11;100.00;102004.50;5048493;28;19913;-60
2022/10/17 11:37:37;;;;;;;;;;;;;;;16.10;100.00;102010.88;5046849;28;20441;-60
2022/10/17 11:40:06;;;;;;;;;;;;;;;16.10;100.00;102012.72;5044067;28;20306;-61
2022/10/17 11:42:35;;;;;;;;;;;;;;;16.10;100.00;102015.41;5048144;28;19921;-59
2022/10/17 11:45:19;;;;;;;;;;;;;;;16.09;100.00;102014.56;5045456;28;19925;-59
2022/10/17 11:47:46;;;;;;;;;;;;;;;16.09;100.00;102008.38;5047779;28;19921;-59
2022/10/17 11:50:26;;;;;;;;;;;;;;;16.09;100.00;102017.25;5046394;28;19913;-60
2022/10/17 11:52:55;;;;;;;;;;;;;;;16.09;100.00;102014.56;5045812;28;19921;-59
2022/10/17 11:55:22;;;;;;;;;;;;;;;16.10;100.00;102020.75;5045207;28;19918;-59
2022/10/17 11:57:58;;;;;;;;;;;;;;;16.10;100.00;102023.44;5046127;28;19987;-59
2022/10/17 12:00:30;;;;;;;;;;;;;;;16.11;100.00;102028.63;5043579;28;19921;-60
2022/10/17 12:03:14;;;;;;;;;;;;;;;16.12;100.00;102024.09;5043487;28;19964;-59
2022/10/17 12:06:02;;;;;;;;;;;;;;;16.14;100.00;102018.53;5043013;28;19921;-59
2022/10/17 12:08:27;;;;;;;;;;;;;;;16.17;100.00;102024.38;5046426;28;19917;-60
2022/10/17 12:10:57;;;;;;;;;;;;;;;16.18;100.00;102026.03;5054953;28;20341;-59
2022/10/17 12:13:28;;;;;;;;;;;;;;;16.21;100.00;102033.75;5040965;28;19936;-59
2022/10/17 12:15:54;;;;;;;;;;;;;;;16.23;100.00;102023.69;5047570;28;19921;-59
2022/10/17 12:18:22;;;;;;;;;;;;;;;16.26;100.00;102022.50;5047532;28;19996;-59
2022/10/17 12:20:54;;;;;;;;;;;;;;;16.29;100.00;102027.50;5051678;28;19913;-59
2022/10/17 12:23:23;;;;;;;;;;;;;;;16.32;100.00;102030.66;5043812;28;21841;-59
2022/10/17 12:25:50;;;;;;;;;;;;;;;16.34;100.00;102023.25;5047605;28;20323;-59
2022/10/17 12:28:34;;;;;;;;;;;;;;;16.35;100.00;102029.44;5042782;28;19924;-59
2022/10/17 12:31:01;;;;;;;;;;;;;;;16.37;100.00;102024.75;5066417;22;19929;-59
2022/10/17 12:33:29;;;;;;;;;;;;;;;16.37;100.00;102022.91;5048476;28;19923;-59
2022/10/17 12:36:13;;;;;;;;;;;;;;;16.39;100.00;102020.88;5051365;28;19977;-59
2022/10/17 12:38:38;;;;;;;;;;;;;;;16.46;100.00;102026.34;5044681;28;19965;-59